sensor_id;sensor_type;location;lat;lon;timestamp;P1;durP1;ratioP1;P2;durP2;ratioP2
53108;SDS011;39007;53.090;6.074;2023-07-22T00:01:25;9.30;;;4.32;;
53108;SDS011;39007;53.090;6.074;2023-07-22T00:03:52;10.27;;;4.80;;
53108;SDS011;39007;53.090;6.074;2023-07-22T00:06:18;8.68;;;4.80;;
53108;SDS011;39007;53.090;6.074;2023-07-22T00:08:44;9.48;;;4.30;;
53108;SDS011;39007;53.090;6.074;2023-07-22T00:11:10;9.68;;;4.95;;
53108;SDS011;39007;53.090;6.074;2023-07-22T00:13:36;10.70;;;4.97;;
53108;SDS011;39007;53.090;6.074;2023-07-22T00:16:02;12.27;;;5.20;;
53108;SDS011;39007;53.090;6.074;2023-07-22T00:18:33;11.68;;;5.18;;
53108;SDS011;39007;53.090;6.074;2023-07-22T00:20:59;12.38;;;5.38;;
53108;SDS011;39007;53.090;6.074;2023-07-22T00:23:25;12.40;;;5.38;;
53108;SDS011;39007;53.090;6.074;2023-07-22T00:25:51;9.13;;;4.57;;
53108;SDS011;39007;53.090;6.074;2023-07-22T00:28:18;9.82;;;5.07;;
53108;SDS011;39007;53.090;6.074;2023-07-22T00:30:44;9.73;;;4.72;;
53108;SDS011;39007;53.090;6.074;2023-07-22T00:33:10;9.10;;;4.40;;
53108;SDS011;39007;53.090;6.074;2023-07-22T00:35:37;11.32;;;5.05;;
53108;SDS011;39007;53.090;6.074;2023-07-22T00:38:03;9.60;;;4.72;;
53108;SDS011;39007;53.090;6.074;2023-07-22T00:40:29;12.35;;;4.70;;
53108;SDS011;39007;53.090;6.074;2023-07-22T00:42:57;9.00;;;4.65;;
53108;SDS011;39007;53.090;6.074;2023-07-22T00:45:24;11.60;;;5.30;;
53108;SDS011;39007;53.090;6.074;2023-07-22T00:47:50;11.15;;;4.88;;
53108;SDS011;39007;53.090;6.074;2023-07-22T00:50:16;9.15;;;4.80;;
53108;SDS011;39007;53.090;6.074;2023-07-22T00:52:42;8.95;;;4.40;;
53108;SDS011;39007;53.090;6.074;2023-07-22T00:55:08;8.35;;;4.55;;
53108;SDS011;39007;53.090;6.074;2023-07-22T00:57:35;9.63;;;4.47;;
53108;SDS011;39007;53.090;6.074;2023-07-22T01:00:03;8.50;;;4.80;;
53108;SDS011;39007;53.090;6.074;2023-07-22T01:02:30;8.38;;;4.05;;
53108;SDS011;39007;53.090;6.074;2023-07-22T01:04:56;10.55;;;4.50;;
53108;SDS011;39007;53.090;6.074;2023-07-22T01:07:23;7.55;;;4.18;;
53108;SDS011;39007;53.090;6.074;2023-07-22T01:09:50;7.45;;;3.90;;
53108;SDS011;39007;53.090;6.074;2023-07-22T01:12:21;6.97;;;4.00;;
53108;SDS011;39007;53.090;6.074;2023-07-22T01:14:47;6.03;;;3.97;;
53108;SDS011;39007;53.090;6.074;2023-07-22T01:17:13;9.00;;;3.72;;
53108;SDS011;39007;53.090;6.074;2023-07-22T01:19:39;9.75;;;4.25;;
53108;SDS011;39007;53.090;6.074;2023-07-22T01:22:06;7.28;;;3.70;;
53108;SDS011;39007;53.090;6.074;2023-07-22T01:24:33;6.55;;;3.55;;
53108;SDS011;39007;53.090;6.074;2023-07-22T01:26:59;6.65;;;4.03;;
53108;SDS011;39007;53.090;6.074;2023-07-22T01:29:26;6.55;;;3.85;;
53108;SDS011;39007;53.090;6.074;2023-07-22T01:31:52;7.63;;;3.60;;
53108;SDS011;39007;53.090;6.074;2023-07-22T01:34:19;5.63;;;3.60;;
53108;SDS011;39007;53.090;6.074;2023-07-22T01:36:46;5.88;;;3.80;;
53108;SDS011;39007;53.090;6.074;2023-07-22T01:39:12;7.20;;;3.60;;
53108;SDS011;39007;53.090;6.074;2023-07-22T01:41:42;10.43;;;4.07;;
53108;SDS011;39007;53.090;6.074;2023-07-22T01:44:08;8.98;;;4.40;;
53108;SDS011;39007;53.090;6.074;2023-07-22T01:46:34;7.57;;;3.53;;
53108;SDS011;39007;53.090;6.074;2023-07-22T01:49:05;9.07;;;3.97;;
53108;SDS011;39007;53.090;6.074;2023-07-22T01:51:35;6.55;;;3.83;;
53108;SDS011;39007;53.090;6.074;2023-07-22T01:54:03;6.90;;;3.33;;
53108;SDS011;39007;53.090;6.074;2023-07-22T01:56:29;8.43;;;3.47;;
53108;SDS011;39007;53.090;6.074;2023-07-22T01:58:55;5.47;;;2.92;;
53108;SDS011;39007;53.090;6.074;2023-07-22T02:01:21;6.60;;;3.13;;
53108;SDS011;39007;53.090;6.074;2023-07-22T02:03:47;5.03;;;3.00;;
53108;SDS011;39007;53.090;6.074;2023-07-22T02:06:13;6.90;;;3.55;;
53108;SDS011;39007;53.090;6.074;2023-07-22T02:08:40;7.82;;;3.97;;
53108;SDS011;39007;53.090;6.074;2023-07-22T02:11:07;9.45;;;4.00;;
53108;SDS011;39007;53.090;6.074;2023-07-22T02:13:35;11.70;;;4.22;;
53108;SDS011;39007;53.090;6.074;2023-07-22T02:16:01;6.72;;;3.88;;
53108;SDS011;39007;53.090;6.074;2023-07-22T02:18:28;8.73;;;4.50;;
53108;SDS011;39007;53.090;6.074;2023-07-22T02:20:55;9.07;;;4.30;;
53108;SDS011;39007;53.090;6.074;2023-07-22T02:23:21;6.72;;;3.92;;
53108;SDS011;39007;53.090;6.074;2023-07-22T02:25:48;7.00;;;3.47;;
53108;SDS011;39007;53.090;6.074;2023-07-22T02:28:14;6.30;;;3.67;;
53108;SDS011;39007;53.090;6.074;2023-07-22T02:30:41;7.32;;;3.75;;
53108;SDS011;39007;53.090;6.074;2023-07-22T02:33:08;10.70;;;4.57;;
53108;SDS011;39007;53.090;6.074;2023-07-22T02:35:34;8.00;;;4.30;;
53108;SDS011;39007;53.090;6.074;2023-07-22T02:38:00;8.20;;;3.88;;
53108;SDS011;39007;53.090;6.074;2023-07-22T02:40:27;6.72;;;4.30;;
53108;SDS011;39007;53.090;6.074;2023-07-22T02:42:53;10.00;;;4.57;;
53108;SDS011;39007;53.090;6.074;2023-07-22T02:45:19;7.88;;;4.47;;
53108;SDS011;39007;53.090;6.074;2023-07-22T02:47:45;7.43;;;4.53;;
53108;SDS011;39007;53.090;6.074;2023-07-22T02:50:12;6.95;;;3.80;;
53108;SDS011;39007;53.090;6.074;2023-07-22T02:52:39;8.13;;;4.28;;
53108;SDS011;39007;53.090;6.074;2023-07-22T02:55:10;7.93;;;4.30;;
53108;SDS011;39007;53.090;6.074;2023-07-22T02:57:37;8.50;;;4.00;;
53108;SDS011;39007;53.090;6.074;2023-07-22T03:00:03;6.85;;;4.32;;
53108;SDS011;39007;53.090;6.074;2023-07-22T03:02:36;7.10;;;4.22;;
53108;SDS011;39007;53.090;6.074;2023-07-22T03:05:08;7.10;;;3.97;;
53108;SDS011;39007;53.090;6.074;2023-07-22T03:07:35;7.60;;;4.03;;
53108;SDS011;39007;53.090;6.074;2023-07-22T03:10:02;8.90;;;3.97;;
53108;SDS011;39007;53.090;6.074;2023-07-22T03:12:28;8.00;;;4.35;;
53108;SDS011;39007;53.090;6.074;2023-07-22T03:14:54;10.07;;;4.28;;
53108;SDS011;39007;53.090;6.074;2023-07-22T03:17:20;8.60;;;4.60;;
53108;SDS011;39007;53.090;6.074;2023-07-22T03:19:46;10.70;;;4.38;;
53108;SDS011;39007;53.090;6.074;2023-07-22T03:22:13;9.07;;;4.65;;
53108;SDS011;39007;53.090;6.074;2023-07-22T03:24:41;8.73;;;4.63;;
53108;SDS011;39007;53.090;6.074;2023-07-22T03:27:07;8.75;;;4.53;;
53108;SDS011;39007;53.090;6.074;2023-07-22T03:29:33;8.40;;;4.28;;
53108;SDS011;39007;53.090;6.074;2023-07-22T03:32:00;11.30;;;4.88;;
53108;SDS011;39007;53.090;6.074;2023-07-22T03:34:26;9.88;;;5.05;;
53108;SDS011;39007;53.090;6.074;2023-07-22T03:36:52;9.10;;;4.68;;
53108;SDS011;39007;53.090;6.074;2023-07-22T03:39:19;9.63;;;5.22;;
53108;SDS011;39007;53.090;6.074;2023-07-22T03:41:45;10.35;;;5.40;;
53108;SDS011;39007;53.090;6.074;2023-07-22T03:44:11;9.13;;;5.50;;
53108;SDS011;39007;53.090;6.074;2023-07-22T03:46:38;10.80;;;6.20;;
53108;SDS011;39007;53.090;6.074;2023-07-22T03:49:04;10.65;;;5.95;;
53108;SDS011;39007;53.090;6.074;2023-07-22T03:51:30;11.13;;;6.60;;
53108;SDS011;39007;53.090;6.074;2023-07-22T03:53:57;11.50;;;6.90;;
53108;SDS011;39007;53.090;6.074;2023-07-22T03:56:23;13.25;;;6.70;;
53108;SDS011;39007;53.090;6.074;2023-07-22T03:58:50;9.93;;;6.65;;
53108;SDS011;39007;53.090;6.074;2023-07-22T04:01:16;11.95;;;6.75;;
53108;SDS011;39007;53.090;6.074;2023-07-22T04:03:42;11.40;;;7.10;;
53108;SDS011;39007;53.090;6.074;2023-07-22T04:06:08;11.20;;;6.93;;
53108;SDS011;39007;53.090;6.074;2023-07-22T04:08:34;11.35;;;7.40;;
53108;SDS011;39007;53.090;6.074;2023-07-22T04:11:00;12.57;;;7.53;;
53108;SDS011;39007;53.090;6.074;2023-07-22T04:13:27;13.52;;;7.72;;
53108;SDS011;39007;53.090;6.074;2023-07-22T04:15:53;12.30;;;7.63;;
53108;SDS011;39007;53.090;6.074;2023-07-22T04:18:20;14.00;;;8.50;;
53108;SDS011;39007;53.090;6.074;2023-07-22T04:20:46;13.57;;;8.00;;
53108;SDS011;39007;53.090;6.074;2023-07-22T04:23:16;11.68;;;8.07;;
53108;SDS011;39007;53.090;6.074;2023-07-22T04:25:42;13.25;;;7.90;;
53108;SDS011;39007;53.090;6.074;2023-07-22T04:28:09;12.18;;;8.10;;
53108;SDS011;39007;53.090;6.074;2023-07-22T04:30:35;13.50;;;8.27;;
53108;SDS011;39007;53.090;6.074;2023-07-22T04:33:02;13.45;;;8.00;;
53108;SDS011;39007;53.090;6.074;2023-07-22T04:35:32;11.13;;;8.20;;
53108;SDS011;39007;53.090;6.074;2023-07-22T04:37:58;12.98;;;8.25;;
53108;SDS011;39007;53.090;6.074;2023-07-22T04:40:24;14.23;;;8.93;;
53108;SDS011;39007;53.090;6.074;2023-07-22T04:42:51;14.20;;;8.88;;
53108;SDS011;39007;53.090;6.074;2023-07-22T04:45:17;15.18;;;8.77;;
53108;SDS011;39007;53.090;6.074;2023-07-22T04:47:43;13.52;;;8.40;;
53108;SDS011;39007;53.090;6.074;2023-07-22T04:50:12;13.10;;;8.30;;
53108;SDS011;39007;53.090;6.074;2023-07-22T04:52:38;14.20;;;9.13;;
53108;SDS011;39007;53.090;6.074;2023-07-22T04:55:06;14.00;;;8.65;;
53108;SDS011;39007;53.090;6.074;2023-07-22T04:57:35;13.88;;;8.57;;
53108;SDS011;39007;53.090;6.074;2023-07-22T05:00:02;12.38;;;8.23;;
53108;SDS011;39007;53.090;6.074;2023-07-22T05:02:29;15.07;;;8.68;;
53108;SDS011;39007;53.090;6.074;2023-07-22T05:04:58;12.05;;;8.18;;
53108;SDS011;39007;53.090;6.074;2023-07-22T05:07:24;13.60;;;8.75;;
53108;SDS011;39007;53.090;6.074;2023-07-22T05:09:50;12.07;;;8.07;;
53108;SDS011;39007;53.090;6.074;2023-07-22T05:12:17;13.60;;;8.73;;
53108;SDS011;39007;53.090;6.074;2023-07-22T05:14:44;14.02;;;8.80;;
53108;SDS011;39007;53.090;6.074;2023-07-22T05:17:10;14.00;;;9.23;;
53108;SDS011;39007;53.090;6.074;2023-07-22T05:19:37;14.45;;;9.07;;
53108;SDS011;39007;53.090;6.074;2023-07-22T05:22:03;14.10;;;8.90;;
53108;SDS011;39007;53.090;6.074;2023-07-22T05:24:29;13.35;;;9.45;;
53108;SDS011;39007;53.090;6.074;2023-07-22T05:26:55;14.18;;;9.60;;
53108;SDS011;39007;53.090;6.074;2023-07-22T05:29:21;15.45;;;9.32;;
53108;SDS011;39007;53.090;6.074;2023-07-22T05:31:47;15.98;;;10.25;;
53108;SDS011;39007;53.090;6.074;2023-07-22T05:34:13;17.05;;;10.95;;
53108;SDS011;39007;53.090;6.074;2023-07-22T05:36:39;15.27;;;9.85;;
53108;SDS011;39007;53.090;6.074;2023-07-22T05:39:06;15.27;;;10.43;;
53108;SDS011;39007;53.090;6.074;2023-07-22T05:41:35;20.08;;;10.48;;
53108;SDS011;39007;53.090;6.074;2023-07-22T05:44:01;18.60;;;11.02;;
53108;SDS011;39007;53.090;6.074;2023-07-22T05:46:27;16.42;;;10.68;;
53108;SDS011;39007;53.090;6.074;2023-07-22T05:48:53;17.70;;;10.93;;
53108;SDS011;39007;53.090;6.074;2023-07-22T05:51:20;16.33;;;11.15;;
53108;SDS011;39007;53.090;6.074;2023-07-22T05:53:46;16.33;;;11.10;;
53108;SDS011;39007;53.090;6.074;2023-07-22T05:56:12;18.83;;;11.55;;
53108;SDS011;39007;53.090;6.074;2023-07-22T05:58:38;19.83;;;12.55;;
53108;SDS011;39007;53.090;6.074;2023-07-22T06:01:04;16.52;;;10.45;;
53108;SDS011;39007;53.090;6.074;2023-07-22T06:03:30;18.70;;;12.05;;
53108;SDS011;39007;53.090;6.074;2023-07-22T06:05:56;18.33;;;11.82;;
53108;SDS011;39007;53.090;6.074;2023-07-22T06:08:23;21.90;;;12.70;;
53108;SDS011;39007;53.090;6.074;2023-07-22T06:10:51;17.58;;;11.52;;
53108;SDS011;39007;53.090;6.074;2023-07-22T06:13:18;17.63;;;11.82;;
53108;SDS011;39007;53.090;6.074;2023-07-22T06:15:44;16.25;;;11.23;;
53108;SDS011;39007;53.090;6.074;2023-07-22T06:18:10;18.00;;;11.07;;
53108;SDS011;39007;53.090;6.074;2023-07-22T06:20:36;18.42;;;11.85;;
53108;SDS011;39007;53.090;6.074;2023-07-22T06:23:03;19.23;;;11.63;;
53108;SDS011;39007;53.090;6.074;2023-07-22T06:25:30;19.02;;;11.88;;
53108;SDS011;39007;53.090;6.074;2023-07-22T06:27:56;20.48;;;12.90;;
53108;SDS011;39007;53.090;6.074;2023-07-22T06:30:22;17.25;;;12.63;;
53108;SDS011;39007;53.090;6.074;2023-07-22T06:32:48;20.48;;;13.38;;
53108;SDS011;39007;53.090;6.074;2023-07-22T06:35:14;26.10;;;13.52;;
53108;SDS011;39007;53.090;6.074;2023-07-22T06:37:40;21.55;;;13.18;;
53108;SDS011;39007;53.090;6.074;2023-07-22T06:40:07;22.88;;;13.82;;
53108;SDS011;39007;53.090;6.074;2023-07-22T06:42:33;20.05;;;13.65;;
53108;SDS011;39007;53.090;6.074;2023-07-22T06:44:59;19.83;;;12.55;;
53108;SDS011;39007;53.090;6.074;2023-07-22T06:47:25;21.88;;;14.18;;
53108;SDS011;39007;53.090;6.074;2023-07-22T06:49:51;19.48;;;13.50;;
53108;SDS011;39007;53.090;6.074;2023-07-22T06:52:17;21.38;;;13.15;;
53108;SDS011;39007;53.090;6.074;2023-07-22T06:54:44;21.77;;;13.65;;
53108;SDS011;39007;53.090;6.074;2023-07-22T06:57:10;22.30;;;14.07;;
53108;SDS011;39007;53.090;6.074;2023-07-22T06:59:36;18.63;;;12.80;;
53108;SDS011;39007;53.090;6.074;2023-07-22T07:02:03;21.00;;;13.35;;
53108;SDS011;39007;53.090;6.074;2023-07-22T07:04:32;20.65;;;13.20;;
53108;SDS011;39007;53.090;6.074;2023-07-22T07:06:59;22.48;;;13.70;;
53108;SDS011;39007;53.090;6.074;2023-07-22T07:09:25;22.15;;;13.10;;
53108;SDS011;39007;53.090;6.074;2023-07-22T07:11:51;19.50;;;12.55;;
53108;SDS011;39007;53.090;6.074;2023-07-22T07:14:17;17.15;;;11.98;;
53108;SDS011;39007;53.090;6.074;2023-07-22T07:16:44;17.60;;;12.02;;
53108;SDS011;39007;53.090;6.074;2023-07-22T07:19:10;21.75;;;12.80;;
53108;SDS011;39007;53.090;6.074;2023-07-22T07:21:36;17.33;;;12.38;;
53108;SDS011;39007;53.090;6.074;2023-07-22T07:24:02;18.10;;;12.40;;
53108;SDS011;39007;53.090;6.074;2023-07-22T07:26:28;18.67;;;11.77;;
53108;SDS011;39007;53.090;6.074;2023-07-22T07:28:54;16.50;;;11.38;;
53108;SDS011;39007;53.090;6.074;2023-07-22T07:31:20;17.38;;;12.18;;
53108;SDS011;39007;53.090;6.074;2023-07-22T07:33:46;15.05;;;11.02;;
53108;SDS011;39007;53.090;6.074;2023-07-22T07:36:13;15.93;;;10.23;;
53108;SDS011;39007;53.090;6.074;2023-07-22T07:38:40;14.40;;;10.60;;
53108;SDS011;39007;53.090;6.074;2023-07-22T07:41:06;15.93;;;9.75;;
53108;SDS011;39007;53.090;6.074;2023-07-22T07:43:37;13.80;;;9.40;;
53108;SDS011;39007;53.090;6.074;2023-07-22T07:48:51;15.93;;;10.00;;
53108;SDS011;39007;53.090;6.074;2023-07-22T07:51:18;14.40;;;9.85;;
53108;SDS011;39007;53.090;6.074;2023-07-22T07:53:45;13.90;;;9.43;;
53108;SDS011;39007;53.090;6.074;2023-07-22T07:56:12;16.25;;;10.23;;
53108;SDS011;39007;53.090;6.074;2023-07-22T07:58:39;14.40;;;10.25;;
53108;SDS011;39007;53.090;6.074;2023-07-22T08:01:05;15.40;;;10.57;;
53108;SDS011;39007;53.090;6.074;2023-07-22T08:03:32;18.60;;;11.80;;
53108;SDS011;39007;53.090;6.074;2023-07-22T08:05:58;18.65;;;13.07;;
53108;SDS011;39007;53.090;6.074;2023-07-22T08:08:24;20.45;;;14.05;;
53108;SDS011;39007;53.090;6.074;2023-07-22T08:11:04;26.55;;;16.83;;
53108;SDS011;39007;53.090;6.074;2023-07-22T08:13:30;28.05;;;18.05;;
53108;SDS011;39007;53.090;6.074;2023-07-22T08:15:58;25.13;;;16.45;;
53108;SDS011;39007;53.090;6.074;2023-07-22T08:18:25;23.33;;;16.67;;
53108;SDS011;39007;53.090;6.074;2023-07-22T08:20:52;26.27;;;15.93;;
53108;SDS011;39007;53.090;6.074;2023-07-22T08:23:18;21.92;;;14.90;;
53108;SDS011;39007;53.090;6.074;2023-07-22T08:25:45;21.75;;;14.80;;
53108;SDS011;39007;53.090;6.074;2023-07-22T08:28:11;24.17;;;15.52;;
53108;SDS011;39007;53.090;6.074;2023-07-22T08:30:37;21.63;;;14.70;;
53108;SDS011;39007;53.090;6.074;2023-07-22T08:33:05;23.45;;;15.32;;
53108;SDS011;39007;53.090;6.074;2023-07-22T08:35:33;25.10;;;15.18;;
53108;SDS011;39007;53.090;6.074;2023-07-22T08:38:00;22.58;;;14.30;;
53108;SDS011;39007;53.090;6.074;2023-07-22T08:40:27;23.38;;;14.25;;
53108;SDS011;39007;53.090;6.074;2023-07-22T08:42:53;25.50;;;15.60;;
53108;SDS011;39007;53.090;6.074;2023-07-22T08:45:19;24.88;;;16.05;;
53108;SDS011;39007;53.090;6.074;2023-07-22T08:47:46;26.45;;;17.33;;
53108;SDS011;39007;53.090;6.074;2023-07-22T08:50:16;28.48;;;17.10;;
53108;SDS011;39007;53.090;6.074;2023-07-22T08:52:44;27.23;;;17.45;;
53108;SDS011;39007;53.090;6.074;2023-07-22T08:55:11;21.98;;;13.82;;
53108;SDS011;39007;53.090;6.074;2023-07-22T08:57:37;18.85;;;12.30;;
53108;SDS011;39007;53.090;6.074;2023-07-22T09:00:04;18.45;;;12.00;;
53108;SDS011;39007;53.090;6.074;2023-07-22T09:02:33;17.75;;;12.30;;
53108;SDS011;39007;53.090;6.074;2023-07-22T09:04:59;18.05;;;12.05;;
53108;SDS011;39007;53.090;6.074;2023-07-22T09:07:25;17.95;;;11.75;;
53108;SDS011;39007;53.090;6.074;2023-07-22T09:09:52;18.55;;;11.88;;
53108;SDS011;39007;53.090;6.074;2023-07-22T09:12:18;19.70;;;13.00;;
53108;SDS011;39007;53.090;6.074;2023-07-22T09:14:45;21.23;;;13.30;;
53108;SDS011;39007;53.090;6.074;2023-07-22T09:17:11;21.13;;;12.93;;
53108;SDS011;39007;53.090;6.074;2023-07-22T09:19:38;20.02;;;12.82;;
53108;SDS011;39007;53.090;6.074;2023-07-22T09:22:04;22.13;;;13.73;;
53108;SDS011;39007;53.090;6.074;2023-07-22T09:24:30;24.30;;;14.48;;
53108;SDS011;39007;53.090;6.074;2023-07-22T09:26:57;19.83;;;13.40;;
53108;SDS011;39007;53.090;6.074;2023-07-22T09:29:32;20.95;;;13.32;;
53108;SDS011;39007;53.090;6.074;2023-07-22T09:31:58;19.85;;;13.55;;
53108;SDS011;39007;53.090;6.074;2023-07-22T09:34:24;18.50;;;13.18;;
53108;SDS011;39007;53.090;6.074;2023-07-22T09:36:54;20.63;;;12.70;;
53108;SDS011;39007;53.090;6.074;2023-07-22T09:39:20;20.20;;;12.85;;
53108;SDS011;39007;53.090;6.074;2023-07-22T09:41:47;19.45;;;12.25;;
53108;SDS011;39007;53.090;6.074;2023-07-22T09:44:13;14.80;;;10.00;;
53108;SDS011;39007;53.090;6.074;2023-07-22T09:46:39;13.75;;;9.38;;
53108;SDS011;39007;53.090;6.074;2023-07-22T09:49:07;12.43;;;8.57;;
53108;SDS011;39007;53.090;6.074;2023-07-22T09:51:35;12.30;;;8.38;;
53108;SDS011;39007;53.090;6.074;2023-07-22T09:54:02;10.93;;;7.15;;
53108;SDS011;39007;53.090;6.074;2023-07-22T09:56:29;11.23;;;7.53;;
53108;SDS011;39007;53.090;6.074;2023-07-22T09:58:55;11.55;;;6.75;;
53108;SDS011;39007;53.090;6.074;2023-07-22T10:01:26;9.57;;;6.22;;
53108;SDS011;39007;53.090;6.074;2023-07-22T10:03:53;9.05;;;6.05;;
53108;SDS011;39007;53.090;6.074;2023-07-22T10:06:24;7.80;;;5.18;;
53108;SDS011;39007;53.090;6.074;2023-07-22T10:08:50;9.43;;;5.85;;
53108;SDS011;39007;53.090;6.074;2023-07-22T10:11:17;7.75;;;5.40;;
53108;SDS011;39007;53.090;6.074;2023-07-22T10:13:43;7.38;;;4.78;;
53108;SDS011;39007;53.090;6.074;2023-07-22T10:16:09;7.88;;;4.60;;
53108;SDS011;39007;53.090;6.074;2023-07-22T10:18:36;6.78;;;4.78;;
53108;SDS011;39007;53.090;6.074;2023-07-22T10:21:02;8.48;;;4.22;;
53108;SDS011;39007;53.090;6.074;2023-07-22T10:23:29;6.07;;;4.10;;
53108;SDS011;39007;53.090;6.074;2023-07-22T10:25:57;7.78;;;4.97;;
53108;SDS011;39007;53.090;6.074;2023-07-22T10:28:23;8.32;;;4.82;;
53108;SDS011;39007;53.090;6.074;2023-07-22T10:30:51;7.00;;;4.90;;
53108;SDS011;39007;53.090;6.074;2023-07-22T10:33:17;10.15;;;5.32;;
53108;SDS011;39007;53.090;6.074;2023-07-22T10:35:47;9.25;;;5.30;;
53108;SDS011;39007;53.090;6.074;2023-07-22T10:38:27;7.38;;;4.93;;
53108;SDS011;39007;53.090;6.074;2023-07-22T10:40:53;8.05;;;4.93;;
53108;SDS011;39007;53.090;6.074;2023-07-22T10:43:27;7.32;;;5.25;;
53108;SDS011;39007;53.090;6.074;2023-07-22T10:45:56;8.50;;;5.63;;
53108;SDS011;39007;53.090;6.074;2023-07-22T10:48:25;7.78;;;5.28;;
53108;SDS011;39007;53.090;6.074;2023-07-22T10:50:53;7.95;;;5.30;;
53108;SDS011;39007;53.090;6.074;2023-07-22T11:01:24;8.88;;;5.20;;
53108;SDS011;39007;53.090;6.074;2023-07-22T11:07:04;8.52;;;5.88;;
53108;SDS011;39007;53.090;6.074;2023-07-22T11:14:29;10.13;;;5.88;;
53108;SDS011;39007;53.090;6.074;2023-07-22T11:16:59;8.80;;;6.28;;
53108;SDS011;39007;53.090;6.074;2023-07-22T11:19:26;10.07;;;6.90;;
53108;SDS011;39007;53.090;6.074;2023-07-22T11:21:52;9.77;;;7.05;;
53108;SDS011;39007;53.090;6.074;2023-07-22T11:24:19;9.30;;;6.70;;
53108;SDS011;39007;53.090;6.074;2023-07-22T11:26:46;10.30;;;7.50;;
53108;SDS011;39007;53.090;6.074;2023-07-22T11:29:13;11.30;;;7.95;;
53108;SDS011;39007;53.090;6.074;2023-07-22T11:31:40;11.45;;;8.68;;
53108;SDS011;39007;53.090;6.074;2023-07-22T11:34:11;10.48;;;7.60;;
53108;SDS011;39007;53.090;6.074;2023-07-22T11:36:37;11.57;;;8.55;;
53108;SDS011;39007;53.090;6.074;2023-07-22T11:39:04;11.13;;;8.77;;
53108;SDS011;39007;53.090;6.074;2023-07-22T11:41:30;13.68;;;9.20;;
53108;SDS011;39007;53.090;6.074;2023-07-22T11:43:57;14.52;;;10.13;;
53108;SDS011;39007;53.090;6.074;2023-07-22T11:46:24;13.52;;;8.52;;
53108;SDS011;39007;53.090;6.074;2023-07-22T11:48:51;14.23;;;10.02;;
53108;SDS011;39007;53.090;6.074;2023-07-22T11:51:20;15.57;;;9.88;;
53108;SDS011;39007;53.090;6.074;2023-07-22T11:53:47;13.25;;;9.63;;
53108;SDS011;39007;53.090;6.074;2023-07-22T11:56:21;11.52;;;9.40;;
53108;SDS011;39007;53.090;6.074;2023-07-22T11:58:56;16.27;;;10.63;;
53108;SDS011;39007;53.090;6.074;2023-07-22T12:01:23;19.80;;;10.68;;
53108;SDS011;39007;53.090;6.074;2023-07-22T12:03:50;17.88;;;10.52;;
53108;SDS011;39007;53.090;6.074;2023-07-22T12:06:21;15.73;;;10.70;;
53108;SDS011;39007;53.090;6.074;2023-07-22T12:08:51;17.40;;;11.18;;
53108;SDS011;39007;53.090;6.074;2023-07-22T12:11:18;15.93;;;11.30;;
53108;SDS011;39007;53.090;6.074;2023-07-22T12:13:44;13.35;;;10.40;;
53108;SDS011;39007;53.090;6.074;2023-07-22T12:16:12;12.57;;;10.75;;
53108;SDS011;39007;53.090;6.074;2023-07-22T12:18:45;12.60;;;10.45;;
53108;SDS011;39007;53.090;6.074;2023-07-22T12:21:11;14.73;;;10.40;;
53108;SDS011;39007;53.090;6.074;2023-07-22T12:23:38;17.15;;;11.43;;
53108;SDS011;39007;53.090;6.074;2023-07-22T12:26:04;16.05;;;10.93;;
53108;SDS011;39007;53.090;6.074;2023-07-22T12:28:30;12.90;;;10.32;;
53108;SDS011;39007;53.090;6.074;2023-07-22T12:30:56;14.13;;;11.27;;
53108;SDS011;39007;53.090;6.074;2023-07-22T12:33:23;13.10;;;9.88;;
53108;SDS011;39007;53.090;6.074;2023-07-22T12:35:50;16.20;;;10.82;;
53108;SDS011;39007;53.090;6.074;2023-07-22T12:38:16;13.07;;;10.85;;
53108;SDS011;39007;53.090;6.074;2023-07-22T12:40:42;13.90;;;10.15;;
53108;SDS011;39007;53.090;6.074;2023-07-22T12:43:09;14.43;;;10.68;;
53108;SDS011;39007;53.090;6.074;2023-07-22T12:45:35;14.20;;;10.82;;
53108;SDS011;39007;53.090;6.074;2023-07-22T12:48:01;15.43;;;10.50;;
53108;SDS011;39007;53.090;6.074;2023-07-22T12:50:29;13.35;;;9.68;;
53108;SDS011;39007;53.090;6.074;2023-07-22T12:52:56;13.93;;;9.50;;
53108;SDS011;39007;53.090;6.074;2023-07-22T12:55:22;15.10;;;10.25;;
53108;SDS011;39007;53.090;6.074;2023-07-22T12:57:48;14.63;;;9.35;;
53108;SDS011;39007;53.090;6.074;2023-07-22T13:00:14;13.07;;;9.15;;
53108;SDS011;39007;53.090;6.074;2023-07-22T13:02:40;14.63;;;8.68;;
53108;SDS011;39007;53.090;6.074;2023-07-22T13:05:07;12.82;;;8.82;;
53108;SDS011;39007;53.090;6.074;2023-07-22T13:07:33;12.90;;;8.75;;
53108;SDS011;39007;53.090;6.074;2023-07-22T13:09:59;10.75;;;8.13;;
53108;SDS011;39007;53.090;6.074;2023-07-22T13:12:32;11.68;;;7.20;;
53108;SDS011;39007;53.090;6.074;2023-07-22T13:14:58;11.85;;;6.15;;
53108;SDS011;39007;53.090;6.074;2023-07-22T13:17:24;10.77;;;6.20;;
53108;SDS011;39007;53.090;6.074;2023-07-22T13:19:50;9.02;;;5.53;;
53108;SDS011;39007;53.090;6.074;2023-07-22T13:22:16;10.25;;;5.40;;
53108;SDS011;39007;53.090;6.074;2023-07-22T13:24:42;10.05;;;5.38;;
53108;SDS011;39007;53.090;6.074;2023-07-22T13:27:09;7.85;;;5.03;;
53108;SDS011;39007;53.090;6.074;2023-07-22T13:29:35;9.02;;;4.57;;
53108;SDS011;39007;53.090;6.074;2023-07-22T13:32:01;8.13;;;4.70;;
53108;SDS011;39007;53.090;6.074;2023-07-22T13:34:29;9.02;;;3.90;;
53108;SDS011;39007;53.090;6.074;2023-07-22T13:36:55;7.30;;;3.55;;
53108;SDS011;39007;53.090;6.074;2023-07-22T13:39:21;13.63;;;3.83;;
53108;SDS011;39007;53.090;6.074;2023-07-22T13:41:47;25.73;;;21.45;;
53108;SDS011;39007;53.090;6.074;2023-07-22T13:44:14;8.88;;;4.30;;
53108;SDS011;39007;53.090;6.074;2023-07-22T13:46:40;8.50;;;3.58;;
53108;SDS011;39007;53.090;6.074;2023-07-22T13:49:06;6.88;;;3.20;;
53108;SDS011;39007;53.090;6.074;2023-07-22T13:51:33;8.90;;;3.30;;
53108;SDS011;39007;53.090;6.074;2023-07-22T13:53:59;6.82;;;3.30;;
53108;SDS011;39007;53.090;6.074;2023-07-22T13:56:25;7.35;;;3.38;;
53108;SDS011;39007;53.090;6.074;2023-07-22T13:58:53;9.35;;;3.78;;
53108;SDS011;39007;53.090;6.074;2023-07-22T14:01:19;7.43;;;3.95;;
53108;SDS011;39007;53.090;6.074;2023-07-22T14:03:46;8.50;;;3.97;;
53108;SDS011;39007;53.090;6.074;2023-07-22T14:06:12;9.40;;;3.83;;
53108;SDS011;39007;53.090;6.074;2023-07-22T14:08:38;8.63;;;3.88;;
53108;SDS011;39007;53.090;6.074;2023-07-22T14:11:04;8.50;;;3.95;;
53108;SDS011;39007;53.090;6.074;2023-07-22T14:13:30;12.55;;;5.07;;
53108;SDS011;39007;53.090;6.074;2023-07-22T14:15:57;8.93;;;4.70;;
53108;SDS011;39007;53.090;6.074;2023-07-22T14:18:23;18.73;;;4.80;;
53108;SDS011;39007;53.090;6.074;2023-07-22T14:20:49;9.63;;;4.85;;
53108;SDS011;39007;53.090;6.074;2023-07-22T14:23:16;9.15;;;4.88;;
53108;SDS011;39007;53.090;6.074;2023-07-22T14:25:42;11.48;;;5.20;;
53108;SDS011;39007;53.090;6.074;2023-07-22T14:28:08;9.05;;;5.00;;
53108;SDS011;39007;53.090;6.074;2023-07-22T14:30:34;10.98;;;5.28;;
53108;SDS011;39007;53.090;6.074;2023-07-22T14:33:00;9.63;;;4.70;;
53108;SDS011;39007;53.090;6.074;2023-07-22T14:35:26;10.45;;;4.55;;
53108;SDS011;39007;53.090;6.074;2023-07-22T14:37:52;7.93;;;4.45;;
53108;SDS011;39007;53.090;6.074;2023-07-22T14:40:18;8.63;;;4.35;;
53108;SDS011;39007;53.090;6.074;2023-07-22T14:42:45;9.02;;;4.90;;
53108;SDS011;39007;53.090;6.074;2023-07-22T14:45:11;8.30;;;4.72;;
53108;SDS011;39007;53.090;6.074;2023-07-22T14:47:37;9.35;;;4.57;;
53108;SDS011;39007;53.090;6.074;2023-07-22T14:50:03;11.18;;;4.47;;
53108;SDS011;39007;53.090;6.074;2023-07-22T14:52:29;9.60;;;4.80;;